Time;durP1;ratioP1;P1;durP2;ratioP2;P2;SDS_P1;SDS_P2;PMS_P1;PMS_P2;Temp;Humidity;BMP_temperature;BMP_pressure;BME280_temperature;BME280_humidity;BME280_pressure;Samples;Min_cycle;Max_cycle;Signal;HPM_P1;HPM_P2
2022/02/26 00:02:19;;;;;;;0.20;0.10;;;;;;;4.61;100.00;101711.19;4993326;28;20484;-51
2022/02/26 00:04:46;;;;;;;0.20;0.10;;;;;;;4.65;100.00;101718.28;4993496;28;20869;-51
2022/02/26 00:07:13;;;;;;;0.20;0.10;;;;;;;4.61;100.00;101719.09;4992967;28;21084;-51
2022/02/26 00:09:40;;;;;;;0.20;0.10;;;;;;;4.65;100.00;101726.19;4992912;28;20544;-51
2022/02/26 00:12:06;;;;;;;0.20;0.10;;;;;;;4.73;100.00;101729.84;4993001;28;20935;-51
2022/02/26 00:14:37;;;;;;;0.20;0.10;;;;;;;4.72;100.00;101721.94;4992304;28;20449;-51
2022/02/26 00:17:03;;;;;;;1.23;0.97;;;;;;;4.62;100.00;101727.88;4992594;28;20473;-51
2022/02/26 00:19:32;;;;;;;0.20;0.10;;;;;;;4.72;100.00;101733.34;4993196;28;20445;-51
2022/02/26 00:22:00;;;;;;;0.20;0.10;;;;;;;4.76;100.00;101727.28;4993040;28;20453;-51
2022/02/26 00:24:26;;;;;;;0.30;0.30;;;;;;;4.81;100.00;101734.38;4992736;28;20461;-51
2022/02/26 00:26:54;;;;;;;0.20;0.13;;;;;;;4.73;100.00;101739.50;4992398;28;20473;-51
2022/02/26 00:29:20;;;;;;;0.20;0.10;;;;;;;4.75;100.00;101740.41;4993154;28;20571;-51
2022/02/26 00:31:47;;;;;;;0.20;0.10;;;;;;;4.80;100.00;101740.47;4992689;28;20484;-50
2022/02/26 00:34:14;;;;;;;0.20;0.10;;;;;;;4.85;100.00;101742.38;4992679;28;20508;-50
2022/02/26 00:36:42;;;;;;;0.20;0.10;;;;;;;5.02;100.00;101742.66;4992433;28;20500;-50
2022/02/26 00:39:09;;;;;;;0.20;0.10;;;;;;;5.01;100.00;101747.03;4992715;28;20449;-50
2022/02/26 00:41:36;;;;;;;0.20;0.10;;;;;;;5.01;100.00;101754.94;4992747;28;20951;-50
2022/02/26 00:44:03;;;;;;;0.20;0.10;;;;;;;4.89;100.00;101754.72;4992877;28;20523;-50
2022/02/26 00:46:32;;;;;;;0.20;0.10;;;;;;;4.93;100.00;101759.19;4992721;28;20477;-50
2022/02/26 00:51:47;;;;;;;0.20;0.10;;;;;;;5.11;100.00;101766.53;4992488;28;20453;-49
2022/02/26 00:54:14;;;;;;;0.20;0.10;;;;;;;4.97;100.00;101766.31;4992820;28;20449;-49
2022/02/26 00:56:42;;;;;;;0.20;0.10;;;;;;;4.92;100.00;101764.44;4998930;28;20856;-50
2022/02/26 00:59:09;;;;;;;0.20;0.10;;;;;;;5.04;100.00;101762.91;4992655;28;20496;-50
2022/02/26 01:01:36;;;;;;;0.20;0.10;;;;;;;4.96;100.00;101777.69;4992610;28;20453;-50
2022/02/26 01:04:04;;;;;;;0.20;0.10;;;;;;;4.99;100.00;101776.88;4992446;28;20967;-50
2022/02/26 01:06:31;;;;;;;0.20;0.10;;;;;;;4.95;100.00;101777.69;4992493;28;20512;-50
2022/02/26 01:09:01;;;;;;;0.20;0.10;;;;;;;4.74;100.00;101772.88;4992339;28;20483;-50
2022/02/26 01:11:28;;;;;;;0.20;0.17;;;;;;;4.70;100.00;101776.31;4992786;28;20539;-50
2022/02/26 01:13:55;;;;;;;0.20;0.10;;;;;;;4.88;100.00;101776.66;4992205;28;20515;-53
2022/02/26 01:16:21;;;;;;;0.20;0.10;;;;;;;4.84;100.00;101776.59;4992099;28;20453;-52
2022/02/26 01:18:48;;;;;;;0.20;0.10;;;;;;;4.81;100.00;101777.41;4992389;28;20850;-52
2022/02/26 01:21:15;;;;;;;0.20;0.10;;;;;;;4.75;100.00;101775.53;4992514;28;20450;-53
2022/02/26 01:23:41;;;;;;;0.20;0.10;;;;;;;4.85;100.00;101776.63;4995596;28;20450;-52
2022/02/26 01:26:08;;;;;;;0.20;0.10;;;;;;;4.80;100.00;101778.28;4995853;28;20457;-52
2022/02/26 01:28:35;;;;;;;0.20;0.10;;;;;;;4.70;100.00;101798.28;4995452;28;20481;-53
2022/02/26 01:31:02;;;;;;;0.20;0.10;;;;;;;4.60;100.00;101790.16;4996612;28;20488;-52
2022/02/26 01:33:29;;;;;;;0.20;0.20;;;;;;;4.81;100.00;101781.81;4995907;28;20503;-52
2022/02/26 01:35:56;;;;;;;0.20;0.10;;;;;;;4.96;100.00;101790.00;4995906;28;20874;-52
2022/02/26 01:38:22;;;;;;;0.20;0.20;;;;;;;4.91;100.00;101779.34;4995090;28;20475;-52
2022/02/26 01:40:49;;;;;;;0.20;0.10;;;;;;;4.96;100.00;101779.44;4995475;28;20488;-52
2022/02/26 01:43:15;;;;;;;0.20;0.10;;;;;;;4.86;100.00;101786.28;4995773;28;20481;-53
2022/02/26 01:45:42;;;;;;;0.20;0.10;;;;;;;4.68;100.00;101784.19;4995869;28;20449;-52
2022/02/26 01:48:08;;;;;;;0.20;0.10;;;;;;;4.74;100.00;101786.06;4995135;28;20488;-52
2022/02/26 01:50:36;;;;;;;0.20;0.10;;;;;;;4.86;100.00;101788.03;4995425;28;20485;-52
2022/02/26 01:53:04;;;;;;;0.33;0.30;;;;;;;4.65;100.00;101781.47;4995643;28;20457;-52
2022/02/26 01:55:31;;;;;;;0.20;0.10;;;;;;;4.42;100.00;101783.69;4995656;28;20453;-52
2022/02/26 01:57:58;;;;;;;0.20;0.10;;;;;;;4.22;100.00;101784.97;4997786;28;20565;-52
2022/02/26 02:00:25;;;;;;;0.20;0.10;;;;;;;4.21;100.00;101796.38;4995365;28;20445;-53
2022/02/26 02:02:57;;;;;;;0.20;0.20;;;;;;;4.11;100.00;101803.19;4995069;28;20485;-52
2022/02/26 02:05:30;;;;;;;0.20;0.10;;;;;;;3.77;100.00;101809.41;4995263;28;20826;-52
2022/02/26 02:07:58;;;;;;;0.20;0.10;;;;;;;3.69;100.00;101804.81;4994730;28;20489;-52
2022/02/26 02:10:31;;;;;;;0.20;0.10;;;;;;;3.46;100.00;101806.91;4995001;28;21041;-52
2022/02/26 02:12:59;;;;;;;0.20;0.10;;;;;;;3.36;100.00;101813.66;4994930;28;20512;-52
2022/02/26 02:15:31;;;;;;;0.20;0.10;;;;;;;3.35;100.00;101824.13;4994962;28;20465;-52
2022/02/26 02:17:58;;;;;;;0.20;0.10;;;;;;;3.40;100.00;101823.38;4994385;28;20891;-53
2022/02/26 02:20:25;;;;;;;0.20;0.10;;;;;;;3.39;100.00;101825.97;4994901;28;20446;-52
2022/02/26 02:22:52;;;;;;;0.20;0.10;;;;;;;3.47;100.00;101832.34;4995154;28;20453;-52
2022/02/26 02:25:26;;;;;;;0.20;0.10;;;;;;;3.38;100.00;101834.72;4994893;28;20457;-52
2022/02/26 02:27:53;;;;;;;0.20;0.10;;;;;;;3.47;100.00;101846.38;4994657;28;20474;-52
2022/02/26 02:30:20;;;;;;;0.20;0.10;;;;;;;3.49;100.00;101842.03;4994641;28;20559;-52
2022/02/26 02:32:46;;;;;;;0.20;0.10;;;;;;;3.41;100.00;101843.56;4994268;28;20461;-52
2022/02/26 02:35:23;;;;;;;0.20;0.10;;;;;;;3.39;100.00;101841.75;4994786;28;20508;-52
2022/02/26 02:37:50;;;;;;;0.20;0.10;;;;;;;3.39;100.00;101845.28;4994255;28;20477;-52
2022/02/26 02:40:17;;;;;;;0.20;0.10;;;;;;;3.32;100.00;101850.34;4994623;28;20458;-52
2022/02/26 02:42:44;;;;;;;0.20;0.10;;;;;;;3.26;100.00;101856.31;4993915;28;20461;-53
2022/02/26 02:45:11;;;;;;;0.20;0.10;;;;;;;3.25;100.00;101851.91;4994640;28;20985;-52
2022/02/26 02:47:38;;;;;;;0.20;0.10;;;;;;;3.13;100.00;101855.09;4993830;28;21076;-52
2022/02/26 02:50:05;;;;;;;1.20;1.20;;;;;;;3.01;100.00;101856.50;4994547;28;20524;-52
2022/02/26 02:52:32;;;;;;;0.20;0.20;;;;;;;2.79;100.00;101852.41;4994415;28;20453;-52
2022/02/26 02:54:58;;;;;;;0.20;0.10;;;;;;;2.65;100.00;101854.63;4994469;28;20504;-52
2022/02/26 02:57:25;;;;;;;0.20;0.20;;;;;;;2.71;100.00;101856.53;4994498;28;20480;-52
2022/02/26 02:59:52;;;;;;;0.20;0.10;;;;;;;2.56;100.00;101856.97;4994581;28;20450;-52
2022/02/26 03:02:19;;;;;;;0.20;0.20;;;;;;;2.83;100.00;101851.63;4994095;28;20861;-52
2022/02/26 03:04:45;;;;;;;0.20;0.10;;;;;;;3.06;100.00;101858.41;4994235;28;20504;-52
2022/02/26 03:07:12;;;;;;;0.20;0.10;;;;;;;3.03;100.00;101865.31;4993704;28;20512;-52
2022/02/26 03:09:39;;;;;;;0.20;0.20;;;;;;;3.14;100.00;101863.84;4993967;28;20454;-52
2022/02/26 03:12:06;;;;;;;0.20;0.20;;;;;;;2.97;100.00;101868.66;4993968;28;20489;-52
2022/02/26 03:14:33;;;;;;;0.20;0.10;;;;;;;3.03;100.00;101865.31;4994134;28;20997;-52
2022/02/26 03:17:00;;;;;;;0.20;0.10;;;;;;;3.15;100.00;101863.00;4993818;28;20998;-52
2022/02/26 03:19:29;;;;;;;0.20;0.10;;;;;;;3.40;100.00;101870.69;4993970;28;20464;-52
2022/02/26 03:21:56;;;;;;;0.20;0.20;;;;;;;3.30;100.00;101879.22;4993813;28;20453;-52
2022/02/26 03:24:22;;;;;;;0.20;0.10;;;;;;;3.23;100.00;101872.00;4993467;28;20457;-52
2022/02/26 03:26:56;;;;;;;0.20;0.10;;;;;;;3.12;100.00;101874.31;4993153;28;20485;-52
2022/02/26 03:29:24;;;;;;;0.63;0.30;;;;;;;3.12;100.00;101874.31;4994027;28;20450;-52
2022/02/26 03:31:51;;;;;;;0.20;0.10;;;;;;;3.09;100.00;101876.00;4993651;28;20572;-52
2022/02/26 03:34:19;;;;;;;0.93;0.93;;;;;;;2.74;100.00;101874.97;4993699;28;20493;-52
2022/02/26 03:36:51;;;;;;;0.20;0.10;;;;;;;2.74;100.00;101878.53;4993248;28;20489;-52
2022/02/26 03:39:18;;;;;;;0.20;0.10;;;;;;;2.60;100.00;101880.75;4993627;28;20453;-52
2022/02/26 03:41:45;;;;;;;0.20;0.13;;;;;;;2.62;100.00;101886.03;4993526;28;20507;-52
2022/02/26 03:44:12;;;;;;;0.20;0.10;;;;;;;2.44;100.00;101896.88;4993152;28;20458;-52
2022/02/26 03:46:39;;;;;;;0.20;0.10;;;;;;;2.35;100.00;101891.34;4993332;28;20458;-52
2022/02/26 03:49:06;;;;;;;0.20;0.20;;;;;;;2.30;100.00;101900.78;4992998;28;20990;-52
2022/02/26 03:51:34;;;;;;;0.20;0.10;;;;;;;2.23;100.00;101909.34;4993259;28;20493;-52
2022/02/26 03:54:01;;;;;;;0.20;0.10;;;;;;;2.19;100.00;101908.31;4993122;28;20461;-52
2022/02/26 03:56:28;;;;;;;0.20;0.10;;;;;;;2.06;100.00;101901.81;4999208;28;20508;-52
2022/02/26 03:58:59;;;;;;;0.20;0.10;;;;;;;2.21;100.00;101906.66;4999692;28;20908;-52
2022/02/26 04:01:25;;;;;;;0.20;0.10;;;;;;;2.14;100.00;101914.28;4993283;28;20516;-52
2022/02/26 04:03:52;;;;;;;0.20;0.20;;;;;;;2.17;100.00;101911.75;4993100;28;20946;-52
2022/02/26 04:06:19;;;;;;;0.20;0.10;;;;;;;2.06;100.00;101917.56;4992683;28;20512;-52
2022/02/26 04:08:46;;;;;;;0.20;0.10;;;;;;;2.04;100.00;101920.94;4987342;28;20481;-52
2022/02/26 04:11:12;;;;;;;0.20;0.10;;;;;;;2.00;100.00;101922.59;4993032;28;20883;-52
2022/02/26 04:13:39;;;;;;;0.20;0.10;;;;;;;1.98;100.00;101931.25;4993042;28;20481;-52
2022/02/26 04:16:07;;;;;;;0.20;0.10;;;;;;;1.95;100.00;101934.69;4992527;28;20449;-52
2022/02/26 04:18:33;;;;;;;0.20;0.10;;;;;;;1.95;100.00;101932.06;4992787;28;20469;-52
2022/02/26 04:21:00;;;;;;;0.20;0.10;;;;;;;1.96;100.00;101933.84;4993080;28;20500;-52
2022/02/26 04:23:27;;;;;;;0.20;0.10;;;;;;;1.92;100.00;101942.44;4992962;28;20504;-52
2022/02/26 04:25:53;;;;;;;0.20;0.10;;;;;;;1.76;100.00;101935.78;4991807;28;20458;-52
2022/02/26 04:28:20;;;;;;;0.20;0.20;;;;;;;1.70;100.00;101935.59;4992516;28;20508;-52
2022/02/26 04:30:51;;;;;;;0.20;0.13;;;;;;;1.58;100.00;101944.75;4992843;28;20493;-52
2022/02/26 04:33:18;;;;;;;0.20;0.10;;;;;;;1.66;100.00;101940.69;4992238;28;20939;-52
2022/02/26 04:35:44;;;;;;;0.20;0.10;;;;;;;1.69;100.00;101939.03;4992772;28;20488;-52
2022/02/26 04:38:11;;;;;;;0.20;0.10;;;;;;;1.70;100.00;101940.81;4992339;28;20533;-52
2022/02/26 04:40:38;;;;;;;0.20;0.10;;;;;;;1.74;100.00;101949.66;4992559;28;20462;-52
2022/02/26 04:43:04;;;;;;;0.20;0.10;;;;;;;1.78;100.00;101955.09;4992384;28;20485;-52
2022/02/26 04:45:31;;;;;;;0.20;0.10;;;;;;;1.86;100.00;101957.97;4992844;28;20449;-52
2022/02/26 04:47:57;;;;;;;0.20;0.10;;;;;;;1.66;100.00;101961.66;4992574;28;20974;-52
2022/02/26 04:50:24;;;;;;;0.20;0.10;;;;;;;1.72;100.00;101964.47;4992752;28;20449;-53
2022/02/26 04:52:51;;;;;;;0.20;0.10;;;;;;;1.54;100.00;101955.97;4992684;28;20450;-52
2022/02/26 04:55:17;;;;;;;0.20;0.10;;;;;;;1.62;100.00;101962.34;4992144;28;20458;-52
2022/02/26 04:57:44;;;;;;;0.20;0.13;;;;;;;1.43;100.00;101961.72;5001570;28;20930;-52
2022/02/26 05:00:12;;;;;;;0.20;0.10;;;;;;;1.30;100.00;101959.50;4996386;28;20449;-51
2022/02/26 05:02:38;;;;;;;0.20;0.10;;;;;;;1.25;100.00;101965.41;4996535;28;20461;-52
2022/02/26 05:05:06;;;;;;;0.20;0.10;;;;;;;1.15;100.00;101957.22;4996444;28;20481;-52
2022/02/26 05:07:33;;;;;;;0.20;0.10;;;;;;;1.14;100.00;101958.06;4995957;28;20841;-52
2022/02/26 05:10:00;;;;;;;0.20;0.10;;;;;;;1.14;100.00;101955.44;4996304;28;20453;-52
2022/02/26 05:12:26;;;;;;;0.20;0.10;;;;;;;1.16;100.00;101961.63;4996073;28;21092;-51
2022/02/26 05:14:55;;;;;;;0.20;0.10;;;;;;;1.07;100.00;101955.13;4996095;28;20503;-52
2022/02/26 05:17:22;;;;;;;0.20;0.10;;;;;;;1.01;100.00;101955.81;4995178;28;20979;-51
2022/02/26 05:19:49;;;;;;;0.20;0.10;;;;;;;0.99;100.00;101967.06;4996101;28;20453;-52
2022/02/26 05:22:15;;;;;;;0.20;0.13;;;;;;;0.86;100.00;101977.09;4996183;28;20446;-51
2022/02/26 05:24:42;;;;;;;0.20;0.10;;;;;;;1.02;100.00;101970.69;4995556;28;20481;-51
2022/02/26 05:27:09;;;;;;;0.20;0.10;;;;;;;1.07;100.00;101968.22;5001704;28;20465;-52
2022/02/26 05:29:35;;;;;;;0.20;0.10;;;;;;;1.18;100.00;101972.16;4995641;28;20500;-52
2022/02/26 05:32:02;;;;;;;0.20;0.10;;;;;;;1.15;100.00;101977.28;4995579;28;20489;-52
2022/02/26 05:34:29;;;;;;;0.20;0.10;;;;;;;1.22;100.00;101983.63;4994712;28;20454;-51
2022/02/26 05:36:56;;;;;;;0.20;0.10;;;;;;;1.20;100.00;101978.31;4995652;28;20453;-51
2022/02/26 05:39:23;;;;;;;0.20;0.10;;;;;;;1.15;100.00;101979.91;4996163;28;20516;-52
2022/02/26 05:41:50;;;;;;;2.30;2.20;;;;;;;0.99;100.00;101975.81;4995420;28;20449;-52
2022/02/26 05:44:16;;;;;;;0.20;0.10;;;;;;;1.09;100.00;101985.78;4995498;28;20453;-52
2022/02/26 05:46:43;;;;;;;0.20;0.10;;;;;;;0.86;100.00;101982.31;4994879;28;21005;-52
2022/02/26 05:49:10;;;;;;;0.20;0.10;;;;;;;0.83;100.00;101990.06;4995185;28;20980;-52
2022/02/26 05:51:36;;;;;;;0.20;0.10;;;;;;;0.69;100.00;101998.22;4994829;28;20489;-52
2022/02/26 05:54:03;;;;;;;0.40;0.40;;;;;;;0.76;100.00;101990.63;4994138;28;20527;-51
2022/02/26 05:56:29;;;;;;;0.20;0.10;;;;;;;0.64;100.00;101995.41;5000085;28;20472;-52
2022/02/26 05:58:56;;;;;;;0.20;0.10;;;;;;;0.62;100.00;101997.06;5001881;28;20477;-52
2022/02/26 06:01:23;;;;;;;0.20;0.10;;;;;;;0.68;100.00;101993.78;4995275;28;20477;-52
2022/02/26 06:03:49;;;;;;;0.20;0.10;;;;;;;0.87;100.00;101980.59;4995083;28;20458;-52
2022/02/26 06:06:16;;;;;;;0.20;0.10;;;;;;;0.70;100.00;101986.91;4982358;28;20509;-52
2022/02/26 06:08:43;;;;;;;0.20;0.10;;;;;;;0.67;100.00;101992.00;4993940;28;20477;-54
2022/02/26 06:11:09;;;;;;;0.20;0.10;;;;;;;0.59;100.00;101991.72;4994859;28;20543;-52
2022/02/26 06:13:36;;;;;;;0.20;0.10;;;;;;;0.67;100.00;102000.75;4994984;28;20516;-52
2022/02/26 06:16:04;;;;;;;0.20;0.10;;;;;;;0.55;100.00;102002.91;4994569;28;20465;-52
2022/02/26 06:18:31;;;;;;;0.20;0.10;;;;;;;0.44;100.00;101997.25;4994542;28;21062;-52
2022/02/26 06:20:57;;;;;;;0.20;0.10;;;;;;;0.43;100.00;101995.47;4994622;28;20481;-53
2022/02/26 06:23:24;;;;;;;0.20;0.10;;;;;;;0.42;100.00;102005.88;4994559;28;20537;-53
2022/02/26 06:25:50;;;;;;;0.20;0.10;;;;;;;0.47;100.00;102013.03;4995460;28;20457;-52
2022/02/26 06:28:17;;;;;;;0.20;0.10;;;;;;;0.46;100.00;102005.16;4994309;28;20519;-52
2022/02/26 06:30:44;;;;;;;0.30;0.20;;;;;;;0.42;100.00;102000.63;4994456;28;20481;-51
2022/02/26 06:33:13;;;;;;;0.20;0.10;;;;;;;0.49;100.00;102015.72;4994652;28;20947;-52
2022/02/26 06:35:41;;;;;;;0.20;0.10;;;;;;;0.59;100.00;102025.72;4994330;28;20951;-52
2022/02/26 06:38:08;;;;;;;0.20;0.10;;;;;;;0.21;100.00;102032.00;4994233;28;20554;-52
2022/02/26 06:40:34;;;;;;;0.20;0.10;;;;;;;0.11;100.00;102019.38;4994594;28;20512;-52
2022/02/26 06:43:01;;;;;;;0.20;0.10;;;;;;;0.22;100.00;102013.78;4994425;28;20512;-51
2022/02/26 06:45:28;;;;;;;0.20;0.10;;;;;;;0.18;100.00;102024.94;4994092;28;20492;-52
2022/02/26 06:47:55;;;;;;;0.20;0.10;;;;;;;0.11;100.00;102029.84;4994130;28;20489;-52
2022/02/26 06:50:22;;;;;;;0.30;0.20;;;;;;;0.38;100.00;102023.13;4994408;28;20791;-52
2022/02/26 06:52:49;;;;;;;0.20;0.10;;;;;;;0.38;100.00;102017.00;4993593;28;20539;-52
2022/02/26 06:55:15;;;;;;;0.20;0.10;;;;;;;0.62;100.00;102025.84;4993521;28;20442;-51
2022/02/26 06:57:44;;;;;;;0.20;0.10;;;;;;;0.73;100.00;102026.28;4999156;28;20516;-52
2022/02/26 07:00:13;;;;;;;0.20;0.10;;;;;;;0.78;100.00;102023.00;4994392;28;20824;-52
2022/02/26 07:02:40;;;;;;;1.50;1.40;;;;;;;0.73;100.00;102014.09;4994250;28;20453;-52
2022/02/26 07:05:07;;;;;;;0.20;0.10;;;;;;;0.67;100.00;102029.53;4994437;28;20449;-52
2022/02/26 07:07:34;;;;;;;0.20;0.10;;;;;;;0.80;100.00;102033.50;4993452;28;20473;-52
2022/02/26 07:10:02;;;;;;;1.33;1.33;;;;;;;0.83;100.00;102031.94;4993862;28;20461;-52
2022/02/26 07:12:29;;;;;;;0.20;0.10;;;;;;;0.87;100.00;102027.72;4992589;28;20536;-52
2022/02/26 07:14:55;;;;;;;0.20;0.10;;;;;;;0.90;100.00;102035.66;4993974;28;20469;-53
2022/02/26 07:17:22;;;;;;;0.20;0.10;;;;;;;1.19;100.00;102028.91;4993518;28;20473;-52
2022/02/26 07:19:48;;;;;;;1.83;1.23;;;;;;;1.38;100.00;102030.50;4988713;28;20461;-52
2022/02/26 07:22:15;;;;;;;0.20;0.10;;;;;;;1.35;100.00;102041.75;4993820;28;20492;-52
2022/02/26 07:24:42;;;;;;;0.20;0.10;;;;;;;1.42;100.00;102043.78;4993263;28;20948;-52
2022/02/26 07:27:11;;;;;;;0.20;0.10;;;;;;;1.62;100.00;102054.97;4993580;28;20482;-52
2022/02/26 07:29:40;;;;;;;0.20;0.10;;;;;;;1.71;100.00;102051.78;4993216;28;20492;-53
2022/02/26 07:32:07;;;;;;;0.20;0.10;;;;;;;1.57;100.00;102058.28;4992677;28;20521;-52
2022/02/26 07:34:34;;;;;;;0.20;0.20;;;;;;;1.61;100.00;102062.78;4992937;28;20450;-52
2022/02/26 07:37:01;;;;;;;0.20;0.10;;;;;;;1.76;100.00;102065.94;5004541;28;20528;-52
2022/02/26 07:39:28;;;;;;;0.97;0.97;;;;;;;1.84;100.00;102068.84;4993551;28;20872;-52
2022/02/26 07:41:55;;;;;;;0.20;0.10;;;;;;;2.01;100.00;102072.94;4993690;28;20454;-52
2022/02/26 07:44:22;;;;;;;0.20;0.10;;;;;;;2.06;100.00;102084.50;4993334;28;20454;-52
2022/02/26 07:46:48;;;;;;;0.20;0.10;;;;;;;2.18;100.00;102069.16;4993260;28;20512;-52
2022/02/26 07:49:15;;;;;;;0.20;0.10;;;;;;;2.30;100.00;102066.97;4993369;28;20461;-51
2022/02/26 07:51:42;;;;;;;0.30;0.20;;;;;;;2.30;100.00;102076.56;4993062;28;20489;-52
2022/02/26 07:54:09;;;;;;;0.20;0.10;;;;;;;2.64;100.00;102070.72;4993562;28;20465;-53
2022/02/26 07:56:36;;;;;;;0.20;0.10;;;;;;;2.78;100.00;102076.41;4999995;28;20445;-52
2022/02/26 07:59:02;;;;;;;0.20;0.10;;;;;;;2.77;100.00;102083.41;4999315;28;20473;-52
2022/02/26 08:01:29;;;;;;;0.30;0.20;;;;;;;2.84;100.00;102084.47;4993272;28;20872;-52
2022/02/26 08:03:56;;;;;;;0.30;0.20;;;;;;;2.87;100.00;102087.19;4993847;28;20631;-52
2022/02/26 08:06:22;;;;;;;0.20;0.10;;;;;;;2.84;100.00;102094.97;4995186;28;20445;-53
2022/02/26 08:08:51;;;;;;;0.20;0.10;;;;;;;2.97;100.00;102092.78;4992721;28;20480;-52
2022/02/26 08:11:17;;;;;;;0.50;0.50;;;;;;;3.12;100.00;102105.50;4993204;28;20445;-53
2022/02/26 08:13:44;;;;;;;0.20;0.10;;;;;;;3.06;100.00;102096.56;4992940;28;20461;-52
2022/02/26 08:16:10;;;;;;;0.20;0.10;;;;;;;3.20;100.00;102098.75;5001344;28;20496;-52
2022/02/26 08:18:37;;;;;;;0.20;0.20;;;;;;;3.33;100.00;102100.03;4992009;28;20495;-53
2022/02/26 08:21:04;;;;;;;0.20;0.20;;;;;;;3.42;100.00;102105.53;4992268;28;20457;-52
2022/02/26 08:23:30;;;;;;;0.20;0.10;;;;;;;3.41;100.00;102108.13;4992607;28;20935;-53
2022/02/26 08:25:57;;;;;;;0.20;0.10;;;;;;;3.43;100.00;102107.34;4993018;28;20453;-52
2022/02/26 08:28:24;;;;;;;0.20;0.10;;;;;;;3.54;100.00;102115.53;4992492;28;20469;-53
2022/02/26 08:30:50;;;;;;;1.30;1.30;;;;;;;3.59;100.00;102123.56;4991343;28;20464;-52
2022/02/26 08:33:17;;;;;;;0.20;0.10;;;;;;;3.59;100.00;102124.47;4992246;28;20497;-52
2022/02/26 08:35:44;;;;;;;0.20;0.17;;;;;;;3.63;100.00;102123.69;4992600;28;20955;-53
2022/02/26 08:38:10;;;;;;;0.20;0.10;;;;;;;3.67;100.00;102125.56;4992331;28;20516;-52
2022/02/26 08:40:37;;;;;;;0.20;0.13;;;;;;;3.85;100.00;102118.22;4992527;28;20500;-53
2022/02/26 08:43:04;;;;;;;0.20;0.20;;;;;;;3.85;100.00;102115.59;4991899;28;20480;-53
2022/02/26 08:45:34;;;;;;;0.20;0.17;;;;;;;3.90;100.00;102118.34;4992258;28;20966;-52
2022/02/26 08:48:02;;;;;;;0.20;0.10;;;;;;;4.05;100.00;102121.41;4991887;28;20500;-52
2022/02/26 08:50:29;;;;;;;0.20;0.10;;;;;;;3.98;100.00;102129.09;4992552;28;20484;-52
2022/02/26 08:52:55;;;;;;;0.20;0.20;;;;;;;4.10;100.00;102135.56;4992335;28;20489;-52
2022/02/26 08:55:22;;;;;;;0.20;0.20;;;;;;;4.27;100.00;102130.78;4992373;28;20457;-53
2022/02/26 08:57:48;;;;;;;0.20;0.10;;;;;;;4.34;100.00;102145.88;5005522;28;20519;-52
2022/02/26 09:00:16;;;;;;;0.50;0.50;;;;;;;4.52;100.00;102144.56;4992598;28;20535;-53
2022/02/26 09:02:43;;;;;;;0.20;0.10;;;;;;;4.53;100.00;102136.72;4991176;28;20454;-52
2022/02/26 09:05:10;;;;;;;0.83;0.83;;;;;;;4.48;100.00;102130.44;4992307;28;20464;-52
2022/02/26 09:07:37;;;;;;;0.20;0.10;;;;;;;4.62;100.00;102138.69;4992332;28;20501;-52
2022/02/26 09:10:05;;;;;;;5.63;1.13;;;;;;;4.67;100.00;102142.34;4992585;28;20453;-52
2022/02/26 09:12:31;;;;;;;0.93;0.93;;;;;;;4.71;100.00;102126.66;4992270;28;21003;-53
2022/02/26 09:14:58;;;;;;;0.20;0.20;;;;;;;4.76;100.00;102148.72;4992687;28;20519;-52
2022/02/26 09:17:25;;;;;;;4.90;2.00;;;;;;;4.75;100.00;102146.94;4992400;28;21057;-53
2022/02/26 09:19:51;;;;;;;0.20;0.13;;;;;;;4.95;100.00;102142.19;4992732;28;20449;-52
2022/02/26 09:22:18;;;;;;;0.20;0.10;;;;;;;5.18;100.00;102134.78;4992620;28;20473;-52
2022/02/26 09:24:45;;;;;;;0.20;0.10;;;;;;;5.04;100.00;102133.56;4992562;28;20499;-51
2022/02/26 09:27:12;;;;;;;0.20;0.13;;;;;;;5.08;100.00;102132.81;4992456;28;20524;-51
2022/02/26 09:29:38;;;;;;;0.20;0.13;;;;;;;4.92;100.00;102131.53;4992712;28;20484;-51
2022/02/26 09:32:05;;;;;;;0.20;0.10;;;;;;;4.88;100.00;102131.44;4992422;28;20527;-51
2022/02/26 09:34:32;;;;;;;0.20;0.10;;;;;;;5.30;100.00;102134.19;4992522;28;20449;-51
2022/02/26 09:36:59;;;;;;;0.20;0.10;;;;;;;5.49;100.00;102146.06;5023594;28;20481;-51
2022/02/26 09:39:25;;;;;;;0.20;0.13;;;;;;;5.73;100.00;102140.41;4992216;28;20457;-52
2022/02/26 09:41:53;;;;;;;0.20;0.20;;;;;;;5.73;98.55;102145.66;4992261;28;20568;-51
2022/02/26 09:44:20;;;;;;;0.20;0.10;;;;;;;5.76;100.00;102149.28;4995104;28;20822;-51
2022/02/26 09:46:48;;;;;;;0.20;0.20;;;;;;;5.61;97.55;102154.22;4995538;28;20476;-51
2022/02/26 09:49:15;;;;;;;0.20;0.10;;;;;;;5.94;99.90;102143.53;4995395;28;20958;-51
2022/02/26 09:51:43;;;;;;;0.20;0.20;;;;;;;5.93;97.22;102140.00;4995275;28;20939;-51
2022/02/26 09:54:10;;;;;;;0.53;0.53;;;;;;;6.00;96.36;102142.75;4995322;28;20449;-51
2022/02/26 09:56:37;;;;;;;0.60;0.60;;;;;;;6.01;95.00;102145.41;5002825;28;20813;-51
2022/02/26 09:59:04;;;;;;;0.20;0.10;;;;;;;6.02;92.87;102138.38;5001465;28;20544;-51
2022/02/26 10:01:31;;;;;;;0.20;0.10;;;;;;;6.19;93.27;102137.00;4995784;28;20935;-51
2022/02/26 10:04:09;;;;;;;0.20;0.10;;;;;;;6.08;93.67;102136.78;4995397;28;21041;-51
2022/02/26 10:06:36;;;;;;;0.20;0.10;;;;;;;6.38;93.44;102138.22;4995786;28;20472;-51
2022/02/26 10:09:13;;;;;;;0.20;0.10;;;;;;;6.53;92.69;102143.75;4995685;28;20481;-52
2022/02/26 10:11:40;;;;;;;0.20;0.20;;;;;;;6.48;88.76;102140.16;4995430;28;20453;-51
2022/02/26 10:14:11;;;;;;;0.20;0.10;;;;;;;6.66;87.40;102142.22;4995613;28;20449;-51
2022/02/26 10:17:01;;;;;;;0.20;0.10;;;;;;;6.50;84.97;102143.72;4995520;28;20462;-51
2022/02/26 10:19:34;;;;;;;0.20;0.10;;;;;;;6.53;85.59;102143.75;4995494;28;20453;-51
2022/02/26 10:22:05;;;;;;;0.20;0.10;;;;;;;6.49;82.42;102142.81;4995302;28;20477;-51
2022/02/26 10:24:33;;;;;;;2.27;0.80;;;;;;;6.44;85.61;102144.50;4995729;28;20512;-51
2022/02/26 10:27:05;;;;;;;0.20;0.10;;;;;;;6.52;84.54;102141.97;4995491;28;20508;-51
2022/02/26 10:29:37;;;;;;;0.20;0.20;;;;;;;6.29;80.91;102149.47;4994337;28;20453;-53
2022/02/26 10:32:06;;;;;;;0.30;0.20;;;;;;;6.44;82.44;102140.94;4995635;28;20516;-51
2022/02/26 10:34:40;;;;;;;0.20;0.20;;;;;;;6.42;81.56;102138.28;4995123;28;20457;-52
2022/02/26 10:37:11;;;;;;;0.20;0.10;;;;;;;6.54;82.48;102138.50;4982439;28;20470;-51
2022/02/26 10:39:49;;;;;;;0.20;0.20;;;;;;;6.82;83.90;102133.69;4994983;28;20485;-51
2022/02/26 10:42:27;;;;;;;0.30;0.20;;;;;;;6.79;82.63;102129.25;4995228;28;20450;-51
2022/02/26 10:45:11;;;;;;;0.20;0.20;;;;;;;6.68;82.49;102129.94;4995146;28;20496;-52
2022/02/26 10:47:43;;;;;;;0.20;0.10;;;;;;;6.92;82.25;102132.97;4995156;28;20493;-52
2022/02/26 10:50:18;;;;;;;0.53;0.53;;;;;;;7.04;84.55;102129.66;4995062;28;20454;-52
2022/02/26 10:52:54;;;;;;;0.20;0.20;;;;;;;7.12;82.39;102134.16;4995048;28;20591;-52
2022/02/26 10:55:20;;;;;;;0.20;0.10;;;;;;;7.31;81.70;102127.41;4994520;28;20504;-52
2022/02/26 10:57:47;;;;;;;0.20;0.10;;;;;;;7.20;83.66;102130.75;5008022;28;20465;-53
2022/02/26 11:00:14;;;;;;;0.20;0.20;;;;;;;7.10;82.16;102130.63;4995042;28;20508;-52
2022/02/26 11:02:43;;;;;;;0.20;0.20;;;;;;;6.92;81.66;102125.06;4994867;28;20449;-52
2022/02/26 11:05:09;;;;;;;0.30;0.30;;;;;;;6.67;80.36;102125.50;4994537;28;20453;-52
2022/02/26 11:07:39;;;;;;;0.20;0.10;;;;;;;6.81;82.54;102118.69;4994599;28;20640;-52
2022/02/26 11:10:06;;;;;;;0.20;0.20;;;;;;;6.89;80.58;102121.47;4994617;28;21017;-52
2022/02/26 11:12:34;;;;;;;0.20;0.20;;;;;;;6.78;80.30;102118.66;4994306;28;20499;-52
2022/02/26 11:15:06;;;;;;;0.20;0.10;;;;;;;7.11;79.91;102113.00;4994392;28;20445;-52
2022/02/26 11:17:36;;;;;;;0.30;0.20;;;;;;;6.97;80.35;102111.91;4994233;28;20548;-52
2022/02/26 11:20:04;;;;;;;0.20;0.10;;;;;;;6.64;79.88;102114.91;4994069;28;20975;-52
2022/02/26 11:22:31;;;;;;;0.20;0.10;;;;;;;6.71;82.06;102107.06;4994333;28;20869;-52
2022/02/26 11:24:58;;;;;;;0.20;0.10;;;;;;;7.01;82.01;102109.34;4994541;28;20453;-52
2022/02/26 11:27:26;;;;;;;0.20;0.20;;;;;;;6.89;80.40;102103.88;4994544;28;20477;-52
2022/02/26 11:29:58;;;;;;;0.20;0.10;;;;;;;6.73;79.93;102101.84;4994081;28;20453;-52
2022/02/26 11:32:28;;;;;;;1.27;1.27;;;;;;;6.70;79.00;102102.66;4994339;28;20530;-53